東京/横田 の空港の天気 - METARとTAF

横田飛行場 ( RJTY / OKO ) - 東京都福生市
飛行場実況気象(Metar)
観測時間08/16 22:56 JST (08/16 13:56 UTC)
風向・風速南西 2m/s
視程10km以上
天気現象
全天の8割程度の雲 雲底高度 1280m
全天を覆う雲 雲底高度 2740m
気温25.6℃
湿度80%
気圧1006.6hPa
METARRJTY 161356Z AUTO 22003KT 10SM BKN042 OVC090 26/22 A2974 RMK AO2 SLP066 T02560219 FZRANO $
過去の天気等 Google飛行場航空写真 Wunderground天気予報

過去48時間のMETAR

飛行場予報(TAF)
発表時間: 8/16 22:10 JST (8/16 13:10 UTC)
予報対象時間: 16日22時 JST ~ 18日4時 JST
風向・風速北北東 5m/s
視程10km以上
全天の4割程度の雲 雲底高度 1220m
全天の8割程度の雲 雲底高度 4270m
17日7時 JST ~ 17日8時 JST に徐々に
風向・風速北北西 5m/s 瞬間風速 8m/s
視程10km以上
全天の4割程度の雲 雲底高度 1520m
全天の4割程度の雲 雲底高度 4270m
17日8時 JST ~ 17日13時 JST に一時的に
風向・風速北北西 8m/s 瞬間風速 13m/s
視程8000m
天気現象弱いしゅう雨
17日21時 JST ~ 17日22時 JST に徐々に
風向・風速北北西 5m/s
視程10km以上
少しの雲 雲底高度 4270m
TAF RJTY 161310Z 1613/1719 03009KT 9999 SCT040 BKN140 QNH2972INS
BECMG 1622/1623 34010G15KT 9999 SCT050 SCT140 QNH2980INS
TEMPO 1623/1704 34015G25KT 8000 -SHRA 510003
BECMG 1712/1713 34009KT 9999 FEW140 QNH2985INS TX30/1704Z TN21/1621Z LAST NO AMDS AFT 1613 NEXT 1621
日本の空港のMETAR・TAFへのリンク

RJTT 東京国際空港
RJAA 新東京国際空港
RJBB 関西国際空港
RJOO 大阪空港
RJGG 中部国際空港
RJCC 新千歳空港
RJFF 福岡空港
ROAH 那覇空港


RJEC 旭川空港
RJCH 函館空港
RJCK 釧路空港
RJCM 女満別空港
RJCB 帯広空港
RJSA 青森空港
RJSS 仙台空港
RJSK 秋田空港
RJSF 福島空港
RJAH 茨城空港
RJSN 新潟空港
RJNT 富山空港
RJNK 小松飛行場
RJNS 静岡空港
RJOH 美保飛行場
RJOC 出雲空港
RJOB 岡山空港
RJOA 広島空港
RJOI 岩国飛行場
RJOT 高松空港
RJOM 松山空港
RJOK 高知空港
RJFR 北九州空港
RJFT 熊本空港
RJFU 長崎空港
RJFS 佐賀空港
RJFO 大分空港
RJFM 宮崎空港
RJFK 鹿児島空港
ROIG 石垣島空港
RJTY 横田飛行場
ROTM 普天間飛行場
RODN 嘉手納飛行場